sensor_id;sensor_type;location;lat;lon;timestamp;pressure;altitude;pressure_sealevel;temperature;humidity
61676;BME280;47574;52.090;5.244;2024-03-29T00:01:37;98982.0;;;15.97;41.37
61676;BME280;47574;52.090;5.244;2024-03-29T00:03:13;98982.0;;;15.89;41.45
61676;BME280;47574;52.090;5.244;2024-03-29T00:04:49;98980.0;;;15.63;41.77
61676;BME280;47574;52.090;5.244;2024-03-29T00:06:25;98977.0;;;15.77;41.57
61676;BME280;47574;52.090;5.244;2024-03-29T00:09:37;98980.0;;;15.6;41.81
61676;BME280;47574;52.090;5.244;2024-03-29T00:11:13;98976.0;;;15.73;41.49
61676;BME280;47574;52.090;5.244;2024-03-29T00:12:49;98973.0;;;15.87;41.29
61676;BME280;47574;52.090;5.244;2024-03-29T00:16:01;98972.0;;;15.22;41.93
61676;BME280;47574;52.090;5.244;2024-03-29T00:17:37;98980.0;;;15.69;41.65
61676;BME280;47574;52.090;5.244;2024-03-29T00:19:14;98984.0;;;15.69;41.56
61676;BME280;47574;52.090;5.244;2024-03-29T00:22:26;98985.0;;;15.9;41.22
61676;BME280;47574;52.090;5.244;2024-03-29T00:24:03;98989.0;;;15.85;41.28
61676;BME280;47574;52.090;5.244;2024-03-29T00:25:39;98981.0;;;15.83;41.42
61676;BME280;47574;52.090;5.244;2024-03-29T00:27:15;98980.0;;;15.62;41.78
61676;BME280;47574;52.090;5.244;2024-03-29T00:30:27;98981.0;;;15.81;41.66
61676;BME280;47574;52.090;5.244;2024-03-29T00:32:04;98985.0;;;15.7;41.63
61676;BME280;47574;52.090;5.244;2024-03-29T00:33:40;98994.0;;;15.74;41.74
61676;BME280;47574;52.090;5.244;2024-03-29T00:36:53;98997.0;;;15.43;42.02
61676;BME280;47574;52.090;5.244;2024-03-29T00:38:29;98998.0;;;15.45;42.19
61676;BME280;47574;52.090;5.244;2024-03-29T00:40:06;99000.0;;;15.51;41.97
61676;BME280;47574;52.090;5.244;2024-03-29T00:43:18;99005.0;;;15.68;41.92
61676;BME280;47574;52.090;5.244;2024-03-29T00:44:54;99005.0;;;15.58;41.83
61676;BME280;47574;52.090;5.244;2024-03-29T00:46:30;99005.0;;;15.57;41.8
61676;BME280;47574;52.090;5.244;2024-03-29T00:49:43;99005.0;;;15.52;41.98
61676;BME280;47574;52.090;5.244;2024-03-29T00:51:19;99002.0;;;15.65;41.96
61676;BME280;47574;52.090;5.244;2024-03-29T00:52:55;99009.0;;;15.62;42.05
61676;BME280;47574;52.090;5.244;2024-03-29T00:54:31;99018.0;;;15.56;42.1
61676;BME280;47574;52.090;5.244;2024-03-29T00:57:43;99016.0;;;15.62;42.19
61676;BME280;47574;52.090;5.244;2024-03-29T00:59:19;99018.0;;;15.62;42.18
61676;BME280;47574;52.090;5.244;2024-03-29T01:00:55;99015.0;;;15.59;42.17
61676;BME280;47574;52.090;5.244;2024-03-29T01:04:07;99017.0;;;15.66;41.98
61676;BME280;47574;52.090;5.244;2024-03-29T01:05:43;99017.0;;;15.43;42.33
61676;BME280;47574;52.090;5.244;2024-03-29T01:07:20;99019.0;;;15.62;42.42
61676;BME280;47574;52.090;5.244;2024-03-29T01:10:32;99022.0;;;15.68;42.37
61676;BME280;47574;52.090;5.244;2024-03-29T01:12:08;99016.0;;;15.55;42.45
61676;BME280;47574;52.090;5.244;2024-03-29T01:13:44;99017.0;;;15.36;42.56
61676;BME280;47574;52.090;5.244;2024-03-29T01:16:56;99018.0;;;15.28;42.83
61676;BME280;47574;52.090;5.244;2024-03-29T01:18:32;99021.0;;;15.48;42.38
61676;BME280;47574;52.090;5.244;2024-03-29T01:20:09;99018.0;;;15.51;42.87
61676;BME280;47574;52.090;5.244;2024-03-29T01:21:46;99010.0;;;15.39;42.96
61676;BME280;47574;52.090;5.244;2024-03-29T01:24:58;99013.0;;;15.43;42.76
61676;BME280;47574;52.090;5.244;2024-03-29T01:26:34;99009.0;;;15.42;42.9
61676;BME280;47574;52.090;5.244;2024-03-29T01:28:10;99009.0;;;15.39;42.71
61676;BME280;47574;52.090;5.244;2024-03-29T01:31:23;99013.0;;;15.51;42.52
61676;BME280;47574;52.090;5.244;2024-03-29T01:32:58;99010.0;;;15.66;42.61
61676;BME280;47574;52.090;5.244;2024-03-29T01:34:35;99007.0;;;15.47;42.87
61676;BME280;47574;52.090;5.244;2024-03-29T01:37:47;99007.0;;;15.46;42.86
61676;BME280;47574;52.090;5.244;2024-03-29T01:39:23;99002.0;;;15.49;42.68
61676;BME280;47574;52.090;5.244;2024-03-29T01:40:59;98995.0;;;15.62;42.53
61676;BME280;47574;52.090;5.244;2024-03-29T01:42:35;98996.0;;;15.64;42.45
61676;BME280;47574;52.090;5.244;2024-03-29T01:45:48;98992.0;;;15.56;42.63
61676;BME280;47574;52.090;5.244;2024-03-29T01:47:26;98990.0;;;15.45;42.79
61676;BME280;47574;52.090;5.244;2024-03-29T01:49:03;98988.0;;;15.39;42.67
61676;BME280;47574;52.090;5.244;2024-03-29T01:52:17;98977.0;;;15.35;42.71
61676;BME280;47574;52.090;5.244;2024-03-29T01:53:55;98975.0;;;15.26;42.95
61676;BME280;47574;52.090;5.244;2024-03-29T01:55:32;98969.0;;;15.31;42.99
61676;BME280;47574;52.090;5.244;2024-03-29T01:58:44;98964.0;;;15.38;42.97
61676;BME280;47574;52.090;5.244;2024-03-29T02:00:20;98963.0;;;15.39;42.83
61676;BME280;47574;52.090;5.244;2024-03-29T02:01:56;98959.0;;;15.4;43.11
61676;BME280;47574;52.090;5.244;2024-03-29T02:03:33;98963.0;;;15.42;42.7
61676;BME280;47574;52.090;5.244;2024-03-29T02:06:46;98959.0;;;15.19;43.2
61676;BME280;47574;52.090;5.244;2024-03-29T02:08:23;98967.0;;;15.29;42.87
61676;BME280;47574;52.090;5.244;2024-03-29T02:09:59;98966.0;;;15.48;42.41
61676;BME280;47574;52.090;5.244;2024-03-29T02:13:11;98967.0;;;15.32;42.88
61676;BME280;47574;52.090;5.244;2024-03-29T02:14:47;98976.0;;;15.44;42.72
61676;BME280;47574;52.090;5.244;2024-03-29T02:16:23;98986.0;;;15.31;42.84
61676;BME280;47574;52.090;5.244;2024-03-29T02:19:35;98987.0;;;15.23;43.35
61676;BME280;47574;52.090;5.244;2024-03-29T02:21:12;98991.0;;;15.28;43.09
61676;BME280;47574;52.090;5.244;2024-03-29T02:22:53;98993.0;;;15.2;43.2
61676;BME280;47574;52.090;5.244;2024-03-29T02:24:31;98991.0;;;15.09;43.29
61676;BME280;47574;52.090;5.244;2024-03-29T02:27:44;98996.0;;;14.95;43.3
61676;BME280;47574;52.090;5.244;2024-03-29T02:29:20;98997.0;;;15.08;43.46
61676;BME280;47574;52.090;5.244;2024-03-29T02:30:56;99001.0;;;15.01;43.4
61676;BME280;47574;52.090;5.244;2024-03-29T02:34:08;99007.0;;;15.09;43.44
61676;BME280;47574;52.090;5.244;2024-03-29T02:35:44;99008.0;;;14.96;43.57
61676;BME280;47574;52.090;5.244;2024-03-29T02:37:20;99005.0;;;15.07;43.61
61676;BME280;47574;52.090;5.244;2024-03-29T02:40:33;99005.0;;;15.05;43.36
61676;BME280;47574;52.090;5.244;2024-03-29T02:42:09;99013.0;;;15.08;43.25
61676;BME280;47574;52.090;5.244;2024-03-29T02:43:45;99019.0;;;15.18;43.1
61676;BME280;47574;52.090;5.244;2024-03-29T02:45:21;99013.0;;;15.12;43.24
61676;BME280;47574;52.090;5.244;2024-03-29T02:48:33;99016.0;;;15.02;43.52
61676;BME280;47574;52.090;5.244;2024-03-29T02:50:12;99014.0;;;15.06;43.47
61676;BME280;47574;52.090;5.244;2024-03-29T02:51:49;99005.0;;;15.08;43.15
61676;BME280;47574;52.090;5.244;2024-03-29T02:55:02;99006.0;;;15.13;43.12
61676;BME280;47574;52.090;5.244;2024-03-29T02:56:38;99011.0;;;15.0;43.27
61676;BME280;47574;52.090;5.244;2024-03-29T02:58:14;99008.0;;;14.99;43.44
61676;BME280;47574;52.090;5.244;2024-03-29T03:01:26;99003.0;;;15.1;43.24
61676;BME280;47574;52.090;5.244;2024-03-29T03:03:02;99009.0;;;15.16;43.11
61676;BME280;47574;52.090;5.244;2024-03-29T03:04:38;99011.0;;;15.16;43.01
61676;BME280;47574;52.090;5.244;2024-03-29T03:06:14;99010.0;;;15.03;43.18
61676;BME280;47574;52.090;5.244;2024-03-29T03:09:26;99012.0;;;15.21;42.84
61676;BME280;47574;52.090;5.244;2024-03-29T03:11:04;99002.0;;;15.21;42.47
61676;BME280;47574;52.090;5.244;2024-03-29T03:12:40;99006.0;;;15.24;42.7
61676;BME280;47574;52.090;5.244;2024-03-29T03:15:52;99007.0;;;15.24;42.55
61676;BME280;47574;52.090;5.244;2024-03-29T03:17:28;99009.0;;;15.43;42.58
61676;BME280;47574;52.090;5.244;2024-03-29T03:19:04;99012.0;;;15.14;43.02
61676;BME280;47574;52.090;5.244;2024-03-29T03:22:16;99018.0;;;15.15;42.76
61676;BME280;47574;52.090;5.244;2024-03-29T03:23:52;99022.0;;;15.35;42.62
61676;BME280;47574;52.090;5.244;2024-03-29T03:25:29;99022.0;;;15.21;43.28
61676;BME280;47574;52.090;5.244;2024-03-29T03:28:41;99027.0;;;15.06;42.99
61676;BME280;47574;52.090;5.244;2024-03-29T03:30:17;99033.0;;;15.2;43.13
61676;BME280;47574;52.090;5.244;2024-03-29T03:31:53;99031.0;;;15.28;43.11
61676;BME280;47574;52.090;5.244;2024-03-29T03:33:29;99027.0;;;15.25;42.77
61676;BME280;47574;52.090;5.244;2024-03-29T03:36:42;99025.0;;;15.33;42.7
61676;BME280;47574;52.090;5.244;2024-03-29T03:38:18;99027.0;;;15.37;42.72
61676;BME280;47574;52.090;5.244;2024-03-29T03:39:54;99024.0;;;15.25;42.86
61676;BME280;47574;52.090;5.244;2024-03-29T03:43:07;99030.0;;;15.38;42.64
61676;BME280;47574;52.090;5.244;2024-03-29T03:44:44;99028.0;;;15.25;42.74
61676;BME280;47574;52.090;5.244;2024-03-29T03:46:20;99019.0;;;15.25;42.7
61676;BME280;47574;52.090;5.244;2024-03-29T03:49:33;99030.0;;;15.34;42.79
61676;BME280;47574;52.090;5.244;2024-03-29T03:51:09;99023.0;;;15.14;43.05
61676;BME280;47574;52.090;5.244;2024-03-29T03:52:45;99021.0;;;15.32;42.73
61676;BME280;47574;52.090;5.244;2024-03-29T03:54:21;99028.0;;;15.07;43.05
61676;BME280;47574;52.090;5.244;2024-03-29T03:57:34;99033.0;;;15.26;42.91
61676;BME280;47574;52.090;5.244;2024-03-29T03:59:10;99039.0;;;15.04;43.28
61676;BME280;47574;52.090;5.244;2024-03-29T04:00:46;99031.0;;;14.89;43.8
61676;BME280;47574;52.090;5.244;2024-03-29T04:03:58;99028.0;;;15.07;43.64
61676;BME280;47574;52.090;5.244;2024-03-29T04:05:36;99031.0;;;15.21;43.66
61676;BME280;47574;52.090;5.244;2024-03-29T04:07:12;99034.0;;;15.35;42.99
61676;BME280;47574;52.090;5.244;2024-03-29T04:10:24;99039.0;;;15.34;43.2
61676;BME280;47574;52.090;5.244;2024-03-29T04:12:01;99045.0;;;15.33;43.0
61676;BME280;47574;52.090;5.244;2024-03-29T04:13:37;99045.0;;;15.03;43.36
61676;BME280;47574;52.090;5.244;2024-03-29T04:16:49;99040.0;;;15.18;43.29
61676;BME280;47574;52.090;5.244;2024-03-29T04:18:25;99040.0;;;15.35;42.97
61676;BME280;47574;52.090;5.244;2024-03-29T04:20:01;99034.0;;;15.36;42.75
61676;BME280;47574;52.090;5.244;2024-03-29T04:21:38;99032.0;;;15.48;42.71
61676;BME280;47574;52.090;5.244;2024-03-29T04:24:51;99030.0;;;15.44;42.9
61676;BME280;47574;52.090;5.244;2024-03-29T04:26:27;99033.0;;;15.35;43.41
61676;BME280;47574;52.090;5.244;2024-03-29T04:28:04;99024.0;;;15.23;43.24
61676;BME280;47574;52.090;5.244;2024-03-29T04:31:16;99027.0;;;15.23;43.28
61676;BME280;47574;52.090;5.244;2024-03-29T04:32:52;99025.0;;;15.29;43.26
61676;BME280;47574;52.090;5.244;2024-03-29T04:34:28;99025.0;;;15.39;43.22
61676;BME280;47574;52.090;5.244;2024-03-29T04:37:41;99025.0;;;15.47;42.95
61676;BME280;47574;52.090;5.244;2024-03-29T04:39:17;99030.0;;;15.66;42.61
61676;BME280;47574;52.090;5.244;2024-03-29T04:40:54;99041.0;;;15.58;42.87
61676;BME280;47574;52.090;5.244;2024-03-29T04:42:31;99037.0;;;15.52;43.15
61676;BME280;47574;52.090;5.244;2024-03-29T04:45:44;99043.0;;;15.47;43.24
61676;BME280;47574;52.090;5.244;2024-03-29T04:47:20;99036.0;;;15.6;43.17
61676;BME280;47574;52.090;5.244;2024-03-29T04:48:57;99030.0;;;15.37;43.69
61676;BME280;47574;52.090;5.244;2024-03-29T04:52:09;99040.0;;;15.37;44.19
61676;BME280;47574;52.090;5.244;2024-03-29T04:53:45;99033.0;;;15.29;44.32
61676;BME280;47574;52.090;5.244;2024-03-29T04:55:21;99031.0;;;15.17;44.87
61676;BME280;47574;52.090;5.244;2024-03-29T04:58:36;99035.0;;;15.14;45.09
61676;BME280;47574;52.090;5.244;2024-03-29T05:00:12;99042.0;;;15.43;45.08
61676;BME280;47574;52.090;5.244;2024-03-29T05:01:48;99043.0;;;15.28;45.24
61676;BME280;47574;52.090;5.244;2024-03-29T05:03:24;99047.0;;;15.39;45.35
61676;BME280;47574;52.090;5.244;2024-03-29T05:06:36;99042.0;;;15.23;45.62
61676;BME280;47574;52.090;5.244;2024-03-29T05:08:12;99047.0;;;15.36;45.5
61676;BME280;47574;52.090;5.244;2024-03-29T05:09:48;99048.0;;;15.31;45.53
61676;BME280;47574;52.090;5.244;2024-03-29T05:13:01;99059.0;;;15.32;45.76
61676;BME280;47574;52.090;5.244;2024-03-29T05:14:37;99065.0;;;15.22;45.8
61676;BME280;47574;52.090;5.244;2024-03-29T05:16:13;99063.0;;;15.21;46.33
61676;BME280;47574;52.090;5.244;2024-03-29T05:19:25;99066.0;;;15.13;46.95
61676;BME280;47574;52.090;5.244;2024-03-29T05:21:01;99067.0;;;15.24;47.07
61676;BME280;47574;52.090;5.244;2024-03-29T05:22:37;99058.0;;;15.05;47.27
61676;BME280;47574;52.090;5.244;2024-03-29T05:25:49;99077.0;;;15.26;47.44
61676;BME280;47574;52.090;5.244;2024-03-29T05:27:26;99080.0;;;15.07;48.04
61676;BME280;47574;52.090;5.244;2024-03-29T05:29:02;99075.0;;;15.18;48.45
61676;BME280;47574;52.090;5.244;2024-03-29T05:30:38;99092.0;;;15.0;49.74
61676;BME280;47574;52.090;5.244;2024-03-29T05:33:50;99100.0;;;14.82;51.16
61676;BME280;47574;52.090;5.244;2024-03-29T05:35:26;99094.0;;;14.85;51.42
61676;BME280;47574;52.090;5.244;2024-03-29T05:37:02;99091.0;;;14.68;52.3
61676;BME280;47574;52.090;5.244;2024-03-29T05:40:14;99096.0;;;14.93;51.91
61676;BME280;47574;52.090;5.244;2024-03-29T05:41:50;99088.0;;;14.91;52.04
61676;BME280;47574;52.090;5.244;2024-03-29T05:43:27;99089.0;;;14.8;53.07
61676;BME280;47574;52.090;5.244;2024-03-29T05:46:41;99087.0;;;14.68;52.81
61676;BME280;47574;52.090;5.244;2024-03-29T05:48:17;99088.0;;;14.7;53.37
61676;BME280;47574;52.090;5.244;2024-03-29T05:49:53;99096.0;;;14.65;53.55
61676;BME280;47574;52.090;5.244;2024-03-29T05:51:30;99108.0;;;14.47;53.7
61676;BME280;47574;52.090;5.244;2024-03-29T05:54:43;99126.0;;;14.6;53.34
61676;BME280;47574;52.090;5.244;2024-03-29T05:56:20;99119.0;;;14.7;53.04
61676;BME280;47574;52.090;5.244;2024-03-29T05:57:56;99117.0;;;14.53;53.53
61676;BME280;47574;52.090;5.244;2024-03-29T06:01:09;99108.0;;;14.64;53.42
61676;BME280;47574;52.090;5.244;2024-03-29T06:02:45;99118.0;;;14.52;53.64
61676;BME280;47574;52.090;5.244;2024-03-29T06:04:21;99111.0;;;14.62;53.31
61676;BME280;47574;52.090;5.244;2024-03-29T06:07:33;99130.0;;;14.75;53.16
61676;BME280;47574;52.090;5.244;2024-03-29T06:09:09;99138.0;;;14.53;53.58
61676;BME280;47574;52.090;5.244;2024-03-29T06:10:45;99134.0;;;14.81;53.41
61676;BME280;47574;52.090;5.244;2024-03-29T06:13:58;99136.0;;;14.72;53.9
61676;BME280;47574;52.090;5.244;2024-03-29T06:15:34;99141.0;;;14.75;53.37
61676;BME280;47574;52.090;5.244;2024-03-29T06:17:10;99139.0;;;14.91;52.92
61676;BME280;47574;52.090;5.244;2024-03-29T06:18:46;99139.0;;;14.82;53.95
61676;BME280;47574;52.090;5.244;2024-03-29T06:21:58;99145.0;;;14.71;54.03
61676;BME280;47574;52.090;5.244;2024-03-29T06:23:34;99141.0;;;14.82;53.51
61676;BME280;47574;52.090;5.244;2024-03-29T06:25:10;99142.0;;;14.77;53.55
61676;BME280;47574;52.090;5.244;2024-03-29T06:28:23;99141.0;;;14.8;53.77
61676;BME280;47574;52.090;5.244;2024-03-29T06:30:00;99142.0;;;14.76;53.52
61676;BME280;47574;52.090;5.244;2024-03-29T06:31:37;99146.0;;;14.89;53.55
61676;BME280;47574;52.090;5.244;2024-03-29T06:34:49;99153.0;;;14.82;54.09
61676;BME280;47574;52.090;5.244;2024-03-29T06:36:25;99153.0;;;14.88;53.55
61676;BME280;47574;52.090;5.244;2024-03-29T06:38:02;99153.0;;;14.94;53.79
61676;BME280;47574;52.090;5.244;2024-03-29T06:39:38;99153.0;;;14.84;54.43
61676;BME280;47574;52.090;5.244;2024-03-29T06:42:50;99146.0;;;14.89;53.98
61676;BME280;47574;52.090;5.244;2024-03-29T06:44:26;99142.0;;;15.06;53.43
61676;BME280;47574;52.090;5.244;2024-03-29T06:46:03;99138.0;;;14.97;53.44
61676;BME280;47574;52.090;5.244;2024-03-29T06:49:16;99138.0;;;15.07;53.88
61676;BME280;47574;52.090;5.244;2024-03-29T06:50:52;99137.0;;;14.9;54.21
61676;BME280;47574;52.090;5.244;2024-03-29T06:52:28;99130.0;;;14.99;54.23
61676;BME280;47574;52.090;5.244;2024-03-29T06:55:40;99122.0;;;15.02;54.05
61676;BME280;47574;52.090;5.244;2024-03-29T06:57:16;99130.0;;;14.89;53.74
61676;BME280;47574;52.090;5.244;2024-03-29T06:58:52;99118.0;;;14.87;53.62
61676;BME280;47574;52.090;5.244;2024-03-29T07:02:04;99115.0;;;14.8;53.64
61676;BME280;47574;52.090;5.244;2024-03-29T07:03:40;99119.0;;;14.86;53.76
61676;BME280;47574;52.090;5.244;2024-03-29T07:05:16;99126.0;;;14.91;53.67
61676;BME280;47574;52.090;5.244;2024-03-29T07:06:52;99130.0;;;15.1;52.95
61676;BME280;47574;52.090;5.244;2024-03-29T07:10:04;99122.0;;;14.85;53.58
61676;BME280;47574;52.090;5.244;2024-03-29T07:11:41;99132.0;;;14.54;54.14
61676;BME280;47574;52.090;5.244;2024-03-29T07:13:17;99125.0;;;14.69;53.86
61676;BME280;47574;52.090;5.244;2024-03-29T07:16:30;99118.0;;;14.91;53.99
61676;BME280;47574;52.090;5.244;2024-03-29T07:18:06;99121.0;;;14.86;53.88
61676;BME280;47574;52.090;5.244;2024-03-29T07:19:42;99120.0;;;14.91;53.56
61676;BME280;47574;52.090;5.244;2024-03-29T07:22:54;99116.0;;;15.04;53.34
61676;BME280;47574;52.090;5.244;2024-03-29T07:24:30;99115.0;;;14.89;53.67
61676;BME280;47574;52.090;5.244;2024-03-29T07:26:06;99124.0;;;15.0;53.71
61676;BME280;47574;52.090;5.244;2024-03-29T07:29:18;99131.0;;;14.92;53.75
61676;BME280;47574;52.090;5.244;2024-03-29T07:30:55;99120.0;;;14.78;53.62
61676;BME280;47574;52.090;5.244;2024-03-29T07:32:32;99132.0;;;14.94;53.51
61676;BME280;47574;52.090;5.244;2024-03-29T07:34:08;99146.0;;;14.91;53.7
61676;BME280;47574;52.090;5.244;2024-03-29T07:37:20;99156.0;;;14.99;53.48
61676;BME280;47574;52.090;5.244;2024-03-29T07:38:56;99160.0;;;15.0;53.56
61676;BME280;47574;52.090;5.244;2024-03-29T07:40:33;99159.0;;;14.87;53.61
61676;BME280;47574;52.090;5.244;2024-03-29T07:43:51;99162.0;;;15.02;53.65
61676;BME280;47574;52.090;5.244;2024-03-29T07:45:28;99152.0;;;14.98;53.44
61676;BME280;47574;52.090;5.244;2024-03-29T07:47:05;99152.0;;;15.03;53.13
61676;BME280;47574;52.090;5.244;2024-03-29T07:48:41;99156.0;;;15.13;52.97
61676;BME280;47574;52.090;5.244;2024-03-29T07:51:53;99158.0;;;15.31;52.43
61676;BME280;47574;52.090;5.244;2024-03-29T07:53:29;99162.0;;;15.21;52.81
61676;BME280;47574;52.090;5.244;2024-03-29T07:55:05;99153.0;;;15.05;52.81
61676;BME280;47574;52.090;5.244;2024-03-29T07:58:17;99161.0;;;15.15;52.99
61676;BME280;47574;52.090;5.244;2024-03-29T07:59:53;99164.0;;;14.85;53.2
61676;BME280;47574;52.090;5.244;2024-03-29T08:01:29;99159.0;;;15.18;53.17
61676;BME280;47574;52.090;5.244;2024-03-29T08:04:42;99160.0;;;15.28;53.08
61676;BME280;47574;52.090;5.244;2024-03-29T08:06:18;99155.0;;;15.04;53.11
61676;BME280;47574;52.090;5.244;2024-03-29T08:07:54;99145.0;;;15.22;53.15
61676;BME280;47574;52.090;5.244;2024-03-29T08:11:06;99140.0;;;15.29;52.64
61676;BME280;47574;52.090;5.244;2024-03-29T08:12:42;99130.0;;;14.82;53.32
61676;BME280;47574;52.090;5.244;2024-03-29T08:14:18;99142.0;;;15.27;52.6
61676;BME280;47574;52.090;5.244;2024-03-29T08:15:56;99148.0;;;15.57;52.28
61676;BME280;47574;52.090;5.244;2024-03-29T08:19:09;99148.0;;;15.62;51.93
61676;BME280;47574;52.090;5.244;2024-03-29T08:20:45;99157.0;;;15.27;52.66
61676;BME280;47574;52.090;5.244;2024-03-29T08:22:21;99157.0;;;15.57;52.59
61676;BME280;47574;52.090;5.244;2024-03-29T08:25:33;99168.0;;;15.58;52.32
61676;BME280;47574;52.090;5.244;2024-03-29T08:27:09;99165.0;;;15.62;52.48
61676;BME280;47574;52.090;5.244;2024-03-29T08:28:45;99163.0;;;15.63;52.15
61676;BME280;47574;52.090;5.244;2024-03-29T08:31:57;99158.0;;;15.75;52.22
61676;BME280;47574;52.090;5.244;2024-03-29T08:33:33;99148.0;;;15.82;52.19
61676;BME280;47574;52.090;5.244;2024-03-29T08:35:10;99155.0;;;15.66;53.06
61676;BME280;47574;52.090;5.244;2024-03-29T08:38:23;99164.0;;;15.54;52.54
61676;BME280;47574;52.090;5.244;2024-03-29T08:39:59;99175.0;;;15.35;53.05
61676;BME280;47574;52.090;5.244;2024-03-29T08:41:35;99181.0;;;15.74;52.19
61676;BME280;47574;52.090;5.244;2024-03-29T08:43:11;99182.0;;;15.54;52.45
61676;BME280;47574;52.090;5.244;2024-03-29T08:46:24;99178.0;;;15.08;53.23
61676;BME280;47574;52.090;5.244;2024-03-29T08:48:00;99191.0;;;15.62;52.79
61676;BME280;47574;52.090;5.244;2024-03-29T08:49:36;99182.0;;;15.64;52.18
61676;BME280;47574;52.090;5.244;2024-03-29T08:52:49;99180.0;;;15.7;52.36
61676;BME280;47574;52.090;5.244;2024-03-29T08:54:25;99183.0;;;15.48;52.35
61676;BME280;47574;52.090;5.244;2024-03-29T08:56:01;99191.0;;;15.54;52.41
61676;BME280;47574;52.090;5.244;2024-03-29T08:59:13;99184.0;;;15.85;51.6
61676;BME280;47574;52.090;5.244;2024-03-29T09:00:53;99186.0;;;16.11;51.41
61676;BME280;47574;52.090;5.244;2024-03-29T09:02:30;99180.0;;;15.98;51.78
61676;BME280;47574;52.090;5.244;2024-03-29T09:04:06;99188.0;;;15.87;52.28
61676;BME280;47574;52.090;5.244;2024-03-29T09:07:19;99190.0;;;16.25;51.31
61676;BME280;47574;52.090;5.244;2024-03-29T09:08:55;99193.0;;;16.18;51.18
61676;BME280;47574;52.090;5.244;2024-03-29T09:10:31;99197.0;;;15.8;51.74
61676;BME280;47574;52.090;5.244;2024-03-29T09:13:43;99193.0;;;15.97;51.67
61676;BME280;47574;52.090;5.244;2024-03-29T09:15:19;99199.0;;;16.16;51.24
61676;BME280;47574;52.090;5.244;2024-03-29T09:16:55;99196.0;;;16.23;51.16
61676;BME280;47574;52.090;5.244;2024-03-29T09:20:08;99193.0;;;16.3;50.85
61676;BME280;47574;52.090;5.244;2024-03-29T09:21:45;99194.0;;;16.25;50.88
61676;BME280;47574;52.090;5.244;2024-03-29T09:24:57;99197.0;;;16.28;50.21
61676;BME280;47574;52.090;5.244;2024-03-29T09:28:09;99208.0;;;16.29;49.99
61676;BME280;47574;52.090;5.244;2024-03-29T09:29:47;99210.0;;;16.32;49.62
61676;BME280;47574;52.090;5.244;2024-03-29T09:31:24;99212.0;;;16.34;49.95
61676;BME280;47574;52.090;5.244;2024-03-29T09:34:36;99223.0;;;16.53;49.7
61676;BME280;47574;52.090;5.244;2024-03-29T09:36:12;99222.0;;;16.61;49.75
61676;BME280;47574;52.090;5.244;2024-03-29T09:37:49;99217.0;;;16.57;49.54
61676;BME280;47574;52.090;5.244;2024-03-29T09:41:08;99219.0;;;16.45;49.34
61676;BME280;47574;52.090;5.244;2024-03-29T09:42:46;99223.0;;;16.3;49.59
61676;BME280;47574;52.090;5.244;2024-03-29T09:44:23;99231.0;;;16.54;49.1
61676;BME280;47574;52.090;5.244;2024-03-29T09:45:59;99235.0;;;16.4;49.09
61676;BME280;47574;52.090;5.244;2024-03-29T09:49:14;99232.0;;;16.37;48.6
61676;BME280;47574;52.090;5.244;2024-03-29T09:50:52;99235.0;;;16.52;48.42
61676;BME280;47574;52.090;5.244;2024-03-29T09:52:31;99235.0;;;16.54;48.02
61676;BME280;47574;52.090;5.244;2024-03-29T09:55:45;99248.0;;;16.5;48.7
61676;BME280;47574;52.090;5.244;2024-03-29T09:57:23;99240.0;;;16.31;48.84
61676;BME280;47574;52.090;5.244;2024-03-29T09:58:59;99247.0;;;16.5;48.96
61676;BME280;47574;52.090;5.244;2024-03-29T10:00:35;99250.0;;;16.64;48.68
61676;BME280;47574;52.090;5.244;2024-03-29T10:03:56;99241.0;;;16.93;48.04
61676;BME280;47574;52.090;5.244;2024-03-29T10:05:33;99236.0;;;16.68;48.5
61676;BME280;47574;52.090;5.244;2024-03-29T10:07:10;99234.0;;;16.61;48.57
61676;BME280;47574;52.090;5.244;2024-03-29T10:10:22;99237.0;;;16.62;48.54
61676;BME280;47574;52.090;5.244;2024-03-29T10:11:58;99230.0;;;16.84;48.23
61676;BME280;47574;52.090;5.244;2024-03-29T10:13:34;99226.0;;;16.61;48.51
61676;BME280;47574;52.090;5.244;2024-03-29T10:15:10;99222.0;;;16.77;48.2
61676;BME280;47574;52.090;5.244;2024-03-29T10:18:26;99227.0;;;16.81;48.48
61676;BME280;47574;52.090;5.244;2024-03-29T10:20:04;99230.0;;;16.7;48.54
61676;BME280;47574;52.090;5.244;2024-03-29T10:21:40;99223.0;;;16.86;48.29
61676;BME280;47574;52.090;5.244;2024-03-29T10:24:53;99225.0;;;16.72;48.43
61676;BME280;47574;52.090;5.244;2024-03-29T10:26:29;99234.0;;;16.73;48.74
61676;BME280;47574;52.090;5.244;2024-03-29T10:28:05;99233.0;;;16.75;48.38
61676;BME280;47574;52.090;5.244;2024-03-29T10:31:17;99236.0;;;17.03;48.37
61676;BME280;47574;52.090;5.244;2024-03-29T10:32:55;99238.0;;;17.16;48.21
61676;BME280;47574;52.090;5.244;2024-03-29T10:34:31;99230.0;;;16.95;47.82
61676;BME280;47574;52.090;5.244;2024-03-29T10:36:08;99230.0;;;17.25;48.04
61676;BME280;47574;52.090;5.244;2024-03-29T10:39:20;99228.0;;;17.18;48.01
61676;BME280;47574;52.090;5.244;2024-03-29T10:40:57;99231.0;;;17.43;47.68
61676;BME280;47574;52.090;5.244;2024-03-29T10:42:34;99241.0;;;17.23;47.57
61676;BME280;47574;52.090;5.244;2024-03-29T10:45:50;99246.0;;;17.16;47.42
61676;BME280;47574;52.090;5.244;2024-03-29T10:47:27;99238.0;;;17.16;47.53
61676;BME280;47574;52.090;5.244;2024-03-29T10:49:06;99230.0;;;17.43;47.2
61676;BME280;47574;52.090;5.244;2024-03-29T10:50:44;99234.0;;;17.27;47.41
61676;BME280;47574;52.090;5.244;2024-03-29T10:54:01;99228.0;;;17.28;47.83
61676;BME280;47574;52.090;5.244;2024-03-29T10:55:38;99242.0;;;17.36;47.85
61676;BME280;47574;52.090;5.244;2024-03-29T10:57:19;99248.0;;;17.62;47.09
61676;BME280;47574;52.090;5.244;2024-03-29T11:00:46;99257.0;;;17.52;47.2
61676;BME280;47574;52.090;5.244;2024-03-29T11:02:30;99256.0;;;17.46;47.24
61676;BME280;47574;52.090;5.244;2024-03-29T11:04:13;99259.0;;;17.5;47.43
61676;BME280;47574;52.090;5.244;2024-03-29T11:05:55;99256.0;;;17.59;47.36
61676;BME280;47574;52.090;5.244;2024-03-29T11:07:39;99262.0;;;17.73;46.87
61676;BME280;47574;52.090;5.244;2024-03-29T11:10:58;99276.0;;;17.81;46.53
61676;BME280;47574;52.090;5.244;2024-03-29T11:12:41;99280.0;;;17.62;46.54
61676;BME280;47574;52.090;5.244;2024-03-29T11:14:30;99285.0;;;17.45;46.23
61676;BME280;47574;52.090;5.244;2024-03-29T11:16:09;99277.0;;;17.55;46.64